createdAt,value
2022-08-12T00:00:35.183Z,17.89
2022-08-12T00:03:21.370Z,17.80
2022-08-12T00:06:08.854Z,17.83
2022-08-12T00:08:56.515Z,17.76
2022-08-12T00:11:44.296Z,17.79
2022-08-12T00:14:30.658Z,17.68
2022-08-12T00:17:17.313Z,17.63
2022-08-12T00:20:03.366Z,17.58
2022-08-12T00:22:58.703Z,17.25
2022-08-12T00:26:22.224Z,17.57
2022-08-12T00:29:12.017Z,17.37
2022-08-12T00:32:00.279Z,17.34
2022-08-12T00:34:49.330Z,17.30
2022-08-12T00:37:36.641Z,17.15
2022-08-12T00:40:24.704Z,17.24
2022-08-12T00:42:53.324Z,17.03
2022-08-12T00:45:21.234Z,17.03
2022-08-12T00:47:52.196Z,17.03
2022-08-12T00:50:22.310Z,16.97
2022-08-12T00:52:52.258Z,16.97
2022-08-12T00:55:19.984Z,16.50
2022-08-12T00:57:50.477Z,16.85
2022-08-12T01:00:25.038Z,16.78
2022-08-12T01:02:57.419Z,16.77
2022-08-12T01:05:44.410Z,16.76
2022-08-12T01:08:50.653Z,16.84
2022-08-12T01:11:32.669Z,16.50
2022-08-12T01:14:01.732Z,16.62
2022-08-12T01:16:29.760Z,16.51
2022-08-12T01:18:58.759Z,16.39
2022-08-12T01:21:55.142Z,16.31
2022-08-12T01:24:56.711Z,16.45
2022-08-12T01:27:25.571Z,16.37
2022-08-12T01:29:54.422Z,16.27
2022-08-12T01:32:23.818Z,16.35
2022-08-12T01:35:07.730Z,16.32
2022-08-12T01:37:58.317Z,16.32
2022-08-12T01:40:38.311Z,16.30
2022-08-12T01:43:09.597Z,16.08
2022-08-12T01:45:47.112Z,16.04
2022-08-12T01:48:17.071Z,16.01
2022-08-12T01:51:05.275Z,16.01
2022-08-12T01:53:53.431Z,15.96
2022-08-12T01:56:25.269Z,15.92
2022-08-12T01:59:15.748Z,16.00
2022-08-12T02:01:45.597Z,15.77
2022-08-12T02:04:40.984Z,15.94
2022-08-12T02:08:04.898Z,15.87
2022-08-12T02:11:10.762Z,15.83
2022-08-12T02:14:00.824Z,15.80
2022-08-12T02:16:54.066Z,15.74
2022-08-12T02:19:42.274Z,15.76
2022-08-12T02:22:38.847Z,15.77
2022-08-12T02:25:29.345Z,15.41
2022-08-12T02:27:56.759Z,15.73
2022-08-12T02:30:41.710Z,15.84
2022-08-12T02:33:11.150Z,15.90
2022-08-12T02:35:39.680Z,15.72
2022-08-12T02:38:10.942Z,15.63
2022-08-12T02:40:42.809Z,15.32
2022-08-12T02:43:21.723Z,15.60
2022-08-12T02:46:03.745Z,15.47
2022-08-12T02:48:37.745Z,15.46
2022-08-12T02:51:09.285Z,15.45
2022-08-12T02:53:37.976Z,15.37
2022-08-12T02:56:06.554Z,15.33
2022-08-12T02:58:35.505Z,15.26
2022-08-12T03:01:05.438Z,15.31
2022-08-12T03:03:34.386Z,15.40
2022-08-12T03:06:08.211Z,15.33
2022-08-12T03:08:40.748Z,15.24
2022-08-12T03:11:15.698Z,15.28
2022-08-12T03:13:51.268Z,15.20
2022-08-12T03:16:20.624Z,15.15
2022-08-12T03:18:49.190Z,15.15
2022-08-12T03:21:52.278Z,15.06
2022-08-12T03:24:08.893Z,15.09
2022-08-12T03:26:37.347Z,15.17
2022-08-12T03:29:06.835Z,15.12
2022-08-12T03:31:34.197Z,15.10
2022-08-12T03:34:04.741Z,15.11
2022-08-12T03:36:35.037Z,15.05
2022-08-12T03:39:17.738Z,14.62
2022-08-12T03:41:59.364Z,14.97
2022-08-12T03:44:53.471Z,14.95
2022-08-12T03:47:58.751Z,14.89
2022-08-12T03:50:44.967Z,14.94
2022-08-12T03:53:30.750Z,14.96
2022-08-12T03:56:16.349Z,14.87
2022-08-12T03:59:02.529Z,14.83
2022-08-12T04:01:29.994Z,14.90
2022-08-12T04:03:58.012Z,14.97
2022-08-12T04:06:34.917Z,14.94
2022-08-12T04:09:16.641Z,14.77
2022-08-12T04:12:04.505Z,14.72
2022-08-12T04:14:32.948Z,14.63
2022-08-12T04:17:01.293Z,14.78
2022-08-12T04:19:29.823Z,14.75
2022-08-12T04:22:02.194Z,14.84
2022-08-12T04:24:35.202Z,14.76
2022-08-12T04:27:08.976Z,14.65
2022-08-12T04:30:16.817Z,14.71
2022-08-12T04:32:25.901Z,14.76
2022-08-12T04:34:53.841Z,14.73
2022-08-12T04:37:20.993Z,14.66
2022-08-12T04:39:48.775Z,14.78
2022-08-12T04:42:16.192Z,14.77
2022-08-12T04:44:44.325Z,14.78
2022-08-12T04:47:16.504Z,14.85
2022-08-12T04:49:46.578Z,14.90
2022-08-12T04:52:14.415Z,14.89
2022-08-12T04:54:43.746Z,14.87
2022-08-12T04:57:11.125Z,14.54
2022-08-12T04:59:48.191Z,14.89
2022-08-12T05:02:21.302Z,14.83
2022-08-12T05:04:51.723Z,14.96
2022-08-12T05:07:20.164Z,14.99
2022-08-12T05:09:58.839Z,14.86
2022-08-12T05:12:33.968Z,15.26
2022-08-12T05:15:01.278Z,15.08
2022-08-12T05:17:28.718Z,15.26
2022-08-12T05:19:57.500Z,15.41
2022-08-12T05:22:26.692Z,15.60
2022-08-12T05:24:53.926Z,15.66
2022-08-12T05:27:22.402Z,15.77
2022-08-12T05:30:06.161Z,15.81
2022-08-12T05:32:37.085Z,15.82
2022-08-12T05:35:06.791Z,15.91
2022-08-12T05:37:35.350Z,15.87
2022-08-12T05:40:09.949Z,16.09
2022-08-12T05:42:38.373Z,15.81
2022-08-12T05:45:06.848Z,16.15
2022-08-12T05:47:52.269Z,16.26
2022-08-12T05:50:21.204Z,16.33
2022-08-12T05:52:48.449Z,16.47
2022-08-12T05:55:15.700Z,16.72
2022-08-12T05:57:48.391Z,16.85
2022-08-12T06:00:16.578Z,16.88
2022-08-12T06:02:46.393Z,17.03
2022-08-12T06:05:13.903Z,17.13
2022-08-12T06:08:02.242Z,17.19
2022-08-12T06:10:32.042Z,17.25
2022-08-12T06:13:02.404Z,17.33
2022-08-12T06:15:29.918Z,17.44
2022-08-12T06:18:13.645Z,17.56
2022-08-12T06:20:46.447Z,17.68
2022-08-12T06:23:15.291Z,17.87
2022-08-12T06:25:43.540Z,17.89
2022-08-12T06:28:17.416Z,18.02
2022-08-12T06:30:53.075Z,18.25
2022-08-12T06:33:57.616Z,18.52
2022-08-12T06:36:21.708Z,18.64
2022-08-12T06:38:49.302Z,18.92
2022-08-12T06:41:35.699Z,18.61
2022-08-12T06:44:06.400Z,19.21
2022-08-12T06:46:36.770Z,19.36
2022-08-12T06:49:04.559Z,19.59
2022-08-12T06:51:32.237Z,19.68
2022-08-12T06:54:01.009Z,19.89
2022-08-12T06:56:59.659Z,20.00
2022-08-12T06:59:15.897Z,20.16
2022-08-12T07:01:51.164Z,20.17
2022-08-12T07:07:09.244Z,20.62
2022-08-12T07:10:03.965Z,20.81
2022-08-12T07:12:24.614Z,20.98
2022-08-12T07:14:59.311Z,21.14
2022-08-12T07:17:31.529Z,21.25
2022-08-12T07:20:03.917Z,21.39
2022-08-12T07:22:33.066Z,21.46
2022-08-12T07:25:18.993Z,21.52
2022-08-12T07:27:46.623Z,21.62
2022-08-12T07:30:14.380Z,21.77
2022-08-12T07:32:41.513Z,21.91
2022-08-12T07:35:08.824Z,22.08
2022-08-12T07:37:41.480Z,22.43
2022-08-12T07:40:11.593Z,22.63
2022-08-12T07:42:41.635Z,22.91
2022-08-12T07:45:09.426Z,23.05
2022-08-12T07:47:37.877Z,23.22
2022-08-12T07:50:09.513Z,23.39
2022-08-12T07:52:39.131Z,23.51
2022-08-12T07:55:06.900Z,23.71
2022-08-12T07:57:35.581Z,23.80
2022-08-12T08:00:05.137Z,23.78
2022-08-12T08:02:35.759Z,23.87
2022-08-12T08:05:03.977Z,24.19
2022-08-12T08:07:31.352Z,24.32
2022-08-12T08:10:10.796Z,24.34
2022-08-12T08:12:53.459Z,24.53
2022-08-12T08:15:51.213Z,24.29
2022-08-12T08:18:25.861Z,24.69
2022-08-12T08:20:56.256Z,24.68
2022-08-12T08:23:43.773Z,24.95
2022-08-12T08:26:15.487Z,25.04
2022-08-12T08:28:43.336Z,25.18
2022-08-12T08:31:10.535Z,25.24
2022-08-12T08:34:05.533Z,25.31
2022-08-12T08:36:24.807Z,25.42
2022-08-12T08:38:57.742Z,25.18
2022-08-12T08:42:15.211Z,25.59
2022-08-12T08:44:38.164Z,25.50
2022-08-12T08:47:07.274Z,25.27
2022-08-12T08:49:37.266Z,25.53
2022-08-12T08:52:10.584Z,25.37
2022-08-12T08:54:38.021Z,25.63
2022-08-12T08:57:08.195Z,25.75
2022-08-12T08:59:35.831Z,25.74
2022-08-12T09:02:03.306Z,25.88
2022-08-12T09:05:13.031Z,25.96
2022-08-12T09:07:51.944Z,26.15
2022-08-12T09:13:23.182Z,25.98
2022-08-12T09:15:55.858Z,25.98
2022-08-12T09:18:26.495Z,25.98
2022-08-12T09:20:58.149Z,26.21
2022-08-12T09:23:57.036Z,26.07
2022-08-12T09:26:18.935Z,26.25
2022-08-12T09:32:07.820Z,26.43
2022-08-12T09:34:29.834Z,26.38
2022-08-12T09:37:02.314Z,26.45
2022-08-12T09:40:06.209Z,26.41
2022-08-12T09:42:43.610Z,26.47
2022-08-12T09:46:07.014Z,26.56
2022-08-12T09:48:20.023Z,26.59
2022-08-12T09:50:51.972Z,26.71
2022-08-12T09:53:36.159Z,26.56
2022-08-12T09:56:59.309Z,26.23
2022-08-12T09:59:00.241Z,26.61
2022-08-12T10:01:35.042Z,26.74
2022-08-12T10:04:19.438Z,26.87
2022-08-12T10:06:55.231Z,26.70
2022-08-12T10:09:39.128Z,26.95
2022-08-12T10:12:33.263Z,26.97
2022-08-12T10:15:04.190Z,27.17
2022-08-12T10:17:33.372Z,27.22
2022-08-12T10:20:01.746Z,27.00
2022-08-12T10:22:39.495Z,27.11
2022-08-12T10:26:34.179Z,27.12
2022-08-12T10:28:38.447Z,26.97
2022-08-12T10:31:06.423Z,27.25
2022-08-12T10:33:55.559Z,26.95
2022-08-12T10:36:36.195Z,27.16
2022-08-12T10:40:06.169Z,27.16
2022-08-12T10:42:15.692Z,27.40
2022-08-12T10:44:46.804Z,27.39
2022-08-12T10:48:01.116Z,27.45
2022-08-12T10:50:33.750Z,27.21
2022-08-12T10:52:56.920Z,26.99
2022-08-12T10:55:26.136Z,27.48
2022-08-12T10:58:14.660Z,27.37
2022-08-12T11:00:45.250Z,27.48
2022-08-12T11:04:31.293Z,27.66
2022-08-12T11:07:06.265Z,27.78
2022-08-12T11:08:58.862Z,27.40
2022-08-12T11:12:34.547Z,27.75
2022-08-12T11:14:50.260Z,27.77
2022-08-12T11:17:42.899Z,27.54
2022-08-12T11:20:06.245Z,27.73
2022-08-12T11:22:35.099Z,27.91
2022-08-12T11:25:02.219Z,28.06
2022-08-12T11:27:37.825Z,28.22
2022-08-12T11:30:30.443Z,28.33
2022-08-12T11:32:52.709Z,28.19
2022-08-12T11:35:20.949Z,28.13
2022-08-12T11:37:57.894Z,27.97
2022-08-12T11:40:26.071Z,28.16
2022-08-12T11:43:17.171Z,28.31
2022-08-12T11:45:46.936Z,28.59
2022-08-12T11:48:15.556Z,28.49
2022-08-12T11:50:43.919Z,28.64
2022-08-12T11:53:58.161Z,28.54
2022-08-12T11:55:58.178Z,28.46
2022-08-12T11:59:38.230Z,28.32
2022-08-12T12:02:01.208Z,28.63
2022-08-12T12:03:59.658Z,28.73
2022-08-12T12:06:27.786Z,28.71
2022-08-12T12:08:55.270Z,28.67
2022-08-12T12:11:22.894Z,28.83
2022-08-12T12:14:07.393Z,28.80
2022-08-12T12:16:39.621Z,29.06
2022-08-12T12:19:08.805Z,29.08
2022-08-12T12:21:47.627Z,28.84
2022-08-12T12:24:21.866Z,29.01
2022-08-12T12:26:59.627Z,29.13
2022-08-12T12:30:18.783Z,29.02
2022-08-12T12:32:17.323Z,29.08
2022-08-12T12:35:14.657Z,29.01
2022-08-12T12:38:05.458Z,29.08
2022-08-12T12:40:22.362Z,29.10
2022-08-12T12:43:01.687Z,28.71
2022-08-12T12:45:34.159Z,29.09
2022-08-12T12:48:07.963Z,28.95
2022-08-12T12:50:42.299Z,29.07
2022-08-12T12:54:05.294Z,29.08
2022-08-12T12:56:06.790Z,29.28
2022-08-12T12:58:34.009Z,29.07
2022-08-12T13:01:04.956Z,28.91
2022-08-12T13:03:54.107Z,29.40
2022-08-12T13:06:25.502Z,29.31
2022-08-12T13:09:02.564Z,29.36
2022-08-12T13:11:41.172Z,29.37
2022-08-12T13:14:28.996Z,29.34
2022-08-12T13:17:02.314Z,29.45
2022-08-12T13:19:37.931Z,29.25
2022-08-12T13:22:18.175Z,29.26
2022-08-12T13:24:54.731Z,29.14
2022-08-12T13:27:35.282Z,29.50
2022-08-12T13:30:12.960Z,29.50
2022-08-12T13:32:41.837Z,29.49
2022-08-12T13:35:20.341Z,29.33
2022-08-12T13:37:57.978Z,29.46
2022-08-12T13:40:28.875Z,29.53
2022-08-12T13:43:01.768Z,29.62
2022-08-12T13:45:31.004Z,29.52
2022-08-12T13:48:00.287Z,29.33
2022-08-12T13:50:33.609Z,29.48
2022-08-12T13:53:23.271Z,29.46
2022-08-12T13:55:59.289Z,29.49
2022-08-12T13:58:30.352Z,29.39
2022-08-12T14:00:58.663Z,29.65
2022-08-12T14:03:28.064Z,29.81
2022-08-12T14:06:04.606Z,29.84
2022-08-12T14:08:34.227Z,29.74
2022-08-12T14:11:02.178Z,29.66
2022-08-12T14:14:03.541Z,29.67
2022-08-12T14:16:37.606Z,29.75
2022-08-12T14:19:21.784Z,30.05
2022-08-12T14:22:00.741Z,29.95
2022-08-12T14:24:40.616Z,30.01
2022-08-12T14:27:13.259Z,29.66
2022-08-12T14:30:04.995Z,29.61
2022-08-12T14:32:39.979Z,29.45
2022-08-12T14:35:09.417Z,29.31
2022-08-12T14:37:56.235Z,29.28
2022-08-12T14:40:29.478Z,29.55
2022-08-12T14:42:58.625Z,29.77
2022-08-12T14:45:44.506Z,29.74
2022-08-12T14:48:18.591Z,29.65
2022-08-12T14:51:09.236Z,29.64
2022-08-12T14:59:57.517Z,29.93
2022-08-12T15:02:20.319Z,29.83
2022-08-12T15:04:52.253Z,29.84
2022-08-12T15:07:33.765Z,29.53
2022-08-12T15:10:06.591Z,29.84
2022-08-12T15:12:34.617Z,30.03
2022-08-12T15:15:02.641Z,30.14
2022-08-12T15:17:37.970Z,30.16
2022-08-12T15:20:32.793Z,30.54
2022-08-12T15:23:05.727Z,30.62
2022-08-12T15:25:47.754Z,31.05
2022-08-12T15:28:22.502Z,31.00
2022-08-12T15:30:54.542Z,31.41
2022-08-12T15:33:24.226Z,31.30
2022-08-12T15:35:53.047Z,31.52
2022-08-12T15:38:24.778Z,31.27
2022-08-12T15:40:53.400Z,31.25
2022-08-12T15:43:51.433Z,31.34
2022-08-12T15:46:15.414Z,31.17
2022-08-12T15:48:46.929Z,31.35
2022-08-12T15:51:59.747Z,31.63
2022-08-12T15:54:35.212Z,32.08
2022-08-12T15:57:05.659Z,32.12
2022-08-12T15:59:51.476Z,32.46
2022-08-12T16:02:26.677Z,32.73
2022-08-12T16:04:54.508Z,32.54
2022-08-12T16:07:29.881Z,32.87
2022-08-12T16:10:05.917Z,33.23
2022-08-12T16:12:54.269Z,33.63
2022-08-12T16:15:26.201Z,33.61
2022-08-12T16:18:14.458Z,34.08
2022-08-12T16:20:46.762Z,34.38
2022-08-12T16:23:26.975Z,34.53
2022-08-12T16:26:14.258Z,35.21
2022-08-12T16:28:44.098Z,35.41
2022-08-12T16:31:23.341Z,35.85
2022-08-12T16:33:59.089Z,35.49
2022-08-12T16:36:30.995Z,36.40
2022-08-12T16:39:01.811Z,36.69
2022-08-12T16:41:37.915Z,37.04
2022-08-12T16:44:08.686Z,36.61
2022-08-12T16:46:37.537Z,36.91
2022-08-12T16:49:13.100Z,37.45
2022-08-12T16:51:46.711Z,36.97
2022-08-12T16:54:26.649Z,36.91
2022-08-12T16:57:05.542Z,36.73
2022-08-12T16:59:53.468Z,37.18
2022-08-12T17:02:31.766Z,37.72
2022-08-12T17:05:05.008Z,37.53
2022-08-12T17:07:43.519Z,38.27
2022-08-12T17:10:13.409Z,38.49
2022-08-12T17:12:45.309Z,38.23
2022-08-12T17:15:41.325Z,37.72
2022-08-12T17:18:39.543Z,36.68
2022-08-12T17:20:49.447Z,36.38
2022-08-12T17:23:18.131Z,37.37
2022-08-12T17:25:52.912Z,36.84
2022-08-12T17:28:21.301Z,36.52
2022-08-12T17:30:51.290Z,36.45
2022-08-12T17:33:27.873Z,36.04
2022-08-12T17:36:02.863Z,36.05
2022-08-12T17:38:30.593Z,35.60
2022-08-12T17:40:58.663Z,34.15
2022-08-12T17:43:54.797Z,32.05
2022-08-12T17:46:23.829Z,30.38
2022-08-12T17:48:59.487Z,29.92
2022-08-12T17:51:31.514Z,29.39
2022-08-12T17:54:05.785Z,29.00
2022-08-12T17:56:41.243Z,28.76
2022-08-12T17:59:12.620Z,28.38
2022-08-12T18:01:45.372Z,28.24
2022-08-12T18:04:21.495Z,28.11
2022-08-12T18:06:51.884Z,27.91
2022-08-12T18:09:20.745Z,27.80
2022-08-12T18:12:08.303Z,27.79
2022-08-12T18:14:38.083Z,27.65
2022-08-12T18:17:09.901Z,27.69
2022-08-12T18:20:03.831Z,27.52
2022-08-12T18:22:31.810Z,27.40
2022-08-12T18:25:03.641Z,27.34
2022-08-12T18:27:46.689Z,27.20
2022-08-12T18:30:20.813Z,27.09
2022-08-12T18:33:04.998Z,27.02
2022-08-12T18:35:47.690Z,27.00
2022-08-12T18:38:22.693Z,26.91
2022-08-12T18:41:21.679Z,26.79
2022-08-12T18:44:02.991Z,26.67
2022-08-12T18:46:47.289Z,26.68
2022-08-12T18:49:20.049Z,26.37
2022-08-12T18:52:02.324Z,26.40
2022-08-12T18:54:35.118Z,26.33
2022-08-12T18:57:19.737Z,26.28
2022-08-12T19:00:02.265Z,26.13
2022-08-12T19:02:36.552Z,26.02
2022-08-12T19:05:10.588Z,25.96
2022-08-12T19:08:01.186Z,25.86
2022-08-12T19:10:32.231Z,25.77
2022-08-12T19:13:24.205Z,25.24
2022-08-12T19:15:54.507Z,25.54
2022-08-12T19:18:29.308Z,25.18
2022-08-12T19:20:58.789Z,25.11
2022-08-12T19:23:35.240Z,25.22
2022-08-12T19:26:05.072Z,25.12
2022-08-12T19:28:34.430Z,24.92
2022-08-12T19:31:57.241Z,24.63
2022-08-12T19:36:06.551Z,24.42
2022-08-12T19:38:04.088Z,24.31
2022-08-12T19:40:31.833Z,24.14
2022-08-12T19:43:18.842Z,24.12
2022-08-12T19:45:50.495Z,23.97
2022-08-12T19:48:20.086Z,23.87
2022-08-12T19:50:52.533Z,23.74
2022-08-12T19:53:22.843Z,23.70
2022-08-12T19:55:55.317Z,23.57
2022-08-12T19:58:24.219Z,23.49
2022-08-12T20:00:53.292Z,23.56
2022-08-12T20:03:40.422Z,23.45
2022-08-12T20:06:15.277Z,23.35
2022-08-12T20:08:48.952Z,23.11
2022-08-12T20:12:14.441Z,23.17
2022-08-12T20:14:17.992Z,23.04
2022-08-12T20:16:52.637Z,22.98
2022-08-12T20:19:52.114Z,22.99
2022-08-12T20:22:24.736Z,22.79
2022-08-12T20:25:02.174Z,22.59
2022-08-12T20:28:02.974Z,22.45
2022-08-12T20:30:52.322Z,22.38
2022-08-12T20:33:16.728Z,22.34
2022-08-12T20:36:14.432Z,22.34
2022-08-12T20:38:38.190Z,22.11
2022-08-12T20:41:16.212Z,22.10
2022-08-12T20:43:50.639Z,22.04
2022-08-12T20:46:19.930Z,22.00
2022-08-12T20:48:54.325Z,21.86
2022-08-12T20:51:21.837Z,21.91
2022-08-12T20:53:53.940Z,21.84
2022-08-12T20:56:36.823Z,21.73
2022-08-12T20:59:19.926Z,21.62
2022-08-12T21:01:48.517Z,21.69
2022-08-12T21:04:37.484Z,21.61
2022-08-12T21:07:09.254Z,21.56
2022-08-12T21:09:41.525Z,21.52
2022-08-12T21:12:28.178Z,21.45
2022-08-12T21:15:23.634Z,21.32
2022-08-12T21:18:11.449Z,21.02
2022-08-12T21:20:54.617Z,21.21
2022-08-12T21:23:22.695Z,20.97
2022-08-12T21:25:56.597Z,21.00
2022-08-12T21:28:30.862Z,21.07
2022-08-12T21:32:35.917Z,21.08
2022-08-12T21:34:07.036Z,20.75
2022-08-12T21:36:39.520Z,20.91
2022-08-12T21:39:21.282Z,20.88
2022-08-12T21:41:51.382Z,20.73
2022-08-12T21:45:46.020Z,20.84
2022-08-12T21:47:21.070Z,20.78
2022-08-12T21:50:04.272Z,20.58
2022-08-12T21:52:40.932Z,20.69
2022-08-12T21:55:18.403Z,20.67
2022-08-12T21:57:53.241Z,20.50
2022-08-12T22:00:33.229Z,20.56
2022-08-12T22:04:04.262Z,20.65
2022-08-12T22:06:25.929Z,20.55
2022-08-12T22:09:03.477Z,20.43
2022-08-12T22:11:41.443Z,20.37
2022-08-12T22:14:21.656Z,20.45
2022-08-12T22:16:51.242Z,20.35
2022-08-12T22:19:19.583Z,20.30
2022-08-12T22:21:48.348Z,20.18
2022-08-12T22:24:25.889Z,20.17
2022-08-12T22:26:55.790Z,20.14
2022-08-12T22:29:42.519Z,20.06
2022-08-12T22:32:11.561Z,20.09
2022-08-12T22:34:39.437Z,19.90
2022-08-12T22:37:11.552Z,19.96
2022-08-12T22:39:49.092Z,19.87
2022-08-12T22:42:35.810Z,19.83
2022-08-12T22:45:23.345Z,19.82
2022-08-12T22:47:54.913Z,19.79
2022-08-12T22:50:27.523Z,19.70
2022-08-12T22:53:14.884Z,19.70
2022-08-12T22:55:59.960Z,19.69
2022-08-12T22:58:33.655Z,19.59
2022-08-12T23:01:02.444Z,19.54
2022-08-12T23:03:48.116Z,19.42
2022-08-12T23:06:21.169Z,19.41
2022-08-12T23:08:48.462Z,19.29
2022-08-12T23:11:17.814Z,18.92
2022-08-12T23:13:54.927Z,19.21
2022-08-12T23:16:31.554Z,19.09
2022-08-12T23:19:10.638Z,19.12
2022-08-12T23:22:04.513Z,19.18
2022-08-12T23:24:35.630Z,19.32
2022-08-12T23:27:22.376Z,18.87
2022-08-12T23:30:17.593Z,19.16
2022-08-12T23:32:37.139Z,19.20
2022-08-12T23:35:06.786Z,19.11
2022-08-12T23:37:34.336Z,19.06
2022-08-12T23:40:17.898Z,19.05
2022-08-12T23:42:46.760Z,19.10
2022-08-12T23:45:20.680Z,19.01
2022-08-12T23:48:00.800Z,18.77
2022-08-12T23:50:33.852Z,18.99
2022-08-12T23:53:22.716Z,18.93
2022-08-12T23:55:50.635Z,18.85
2022-08-12T23:58:26.440Z,18.75
